EWG4673 EDDL-ESSA
Flight info
| Callsign | EWG4673 |
|---|---|
| Flight time | 1h 36m |
| Altitude | 35000 |
| Route | MEVEL1Z/05R MEVEL L179 OSNAD M170 BASUM DCT HAM DCT GIMRU DCT MIKNA N851 PELUP Z226 NILUG |
| Aircraft | A319/M-SDE3FGHIRWY/LB1 |
Departure
| Time | 2026-05-06 06:52 |
|---|---|
| Airport | Düsseldorf Airport (EDDL) |
Arrival
| Time | 2026-05-06 08:28 |
|---|---|
| Airport | Stockholm-Arlanda Airport (ESSA) |
| Time | Latitude | Longitude | Altitude | Speed | Heading |
|---|---|---|---|---|---|
| 2026-05-06 06:34 | 51.28034 | 6.76224 | 129 ft | 0 kts | 163° |
| 2026-05-06 06:44 | 51.28037 | 6.76222 | 128 ft | 3 kts | 163° |
| 2026-05-06 06:44 | 51.28058 | 6.76212 | 124 ft | 3 kts | 163° |
| 2026-05-06 06:44 | 51.28080 | 6.76201 | 125 ft | 3 kts | 163° |
| 2026-05-06 06:44 | 51.28098 | 6.76193 | 126 ft | 3 kts | 176° |
| 2026-05-06 06:45 | 51.28119 | 6.76197 | 128 ft | 3 kts | 213° |
| 2026-05-06 06:45 | 51.28131 | 6.76214 | 123 ft | 0 kts | 232° |
| 2026-05-06 06:48 | 51.28131 | 6.76213 | 122 ft | 1 kts | 232° |
| 2026-05-06 06:48 | 51.28123 | 6.76198 | 128 ft | 3 kts | 232° |
| 2026-05-06 06:48 | 51.28103 | 6.76156 | 127 ft | 7 kts | 232° |
| 2026-05-06 06:49 | 51.28079 | 6.76094 | 125 ft | 7 kts | 253° |
| 2026-05-06 06:49 | 51.28096 | 6.76024 | 128 ft | 7 kts | 306° |
| 2026-05-06 06:49 | 51.28089 | 6.75938 | 128 ft | 12 kts | 231° |
| 2026-05-06 06:49 | 51.28028 | 6.75811 | 129 ft | 17 kts | 233° |
| 2026-05-06 06:50 | 51.27935 | 6.75614 | 129 ft | 28 kts | 232° |
| 2026-05-06 06:50 | 51.27833 | 6.75381 | 124 ft | 10 kts | 267° |
| 2026-05-06 06:50 | 51.27890 | 6.75310 | 125 ft | 13 kts | 334° |
| 2026-05-06 06:50 | 51.27972 | 6.75246 | 124 ft | 10 kts | 334° |
| 2026-05-06 06:51 | 51.27995 | 6.75256 | 123 ft | 2 kts | 59° |
| 2026-05-06 06:51 | 51.28042 | 6.75367 | 122 ft | 37 kts | 54° |
| 2026-05-06 06:51 | 51.28335 | 6.75979 | 127 ft | 98 kts | 53° |
| 2026-05-06 06:51 | 51.28850 | 6.77062 | 177 ft | 143 kts | 51° |
| 2026-05-06 06:52 | 51.29444 | 6.78338 | 801 ft | 140 kts | 51° |
| 2026-05-06 06:52 | 51.30026 | 6.79590 | 1427 ft | 142 kts | 51° |
| 2026-05-06 06:52 | 51.30664 | 6.80933 | 1777 ft | 162 kts | 51° |
| 2026-05-06 06:52 | 51.31396 | 6.82468 | 2111 ft | 185 kts | 52° |
| 2026-05-06 06:53 | 51.32227 | 6.84208 | 2443 ft | 208 kts | 52° |
| 2026-05-06 06:53 | 51.33145 | 6.86129 | 2868 ft | 229 kts | 52° |
| 2026-05-06 06:53 | 51.34131 | 6.88249 | 3382 ft | 253 kts | 53° |
| 2026-05-06 06:53 | 51.35448 | 6.90188 | 4219 ft | 264 kts | 28° |
| 2026-05-06 06:54 | 51.37215 | 6.91094 | 4931 ft | 271 kts | 9° |
| 2026-05-06 06:54 | 51.39066 | 6.91589 | 6051 ft | 271 kts | 9° |
| 2026-05-06 06:54 | 51.40945 | 6.92070 | 7018 ft | 276 kts | 9° |
| 2026-05-06 06:54 | 51.42859 | 6.92560 | 7963 ft | 282 kts | 9° |
| 2026-05-06 06:55 | 51.44822 | 6.93066 | 8921 ft | 289 kts | 8° |
| 2026-05-06 06:55 | 51.46834 | 6.93593 | 9831 ft | 296 kts | 9° |
| 2026-05-06 06:55 | 51.48933 | 6.94050 | 10303 ft | 316 kts | 2° |
| 2026-05-06 06:55 | 51.51203 | 6.93947 | 10577 ft | 338 kts | 351° |
| 2026-05-06 06:56 | 51.53579 | 6.93294 | 11039 ft | 351 kts | 348° |
| 2026-05-06 06:56 | 51.56000 | 6.92598 | 11759 ft | 356 kts | 348° |
| 2026-05-06 06:56 | 51.58451 | 6.91903 | 12483 ft | 360 kts | 348° |
| 2026-05-06 06:56 | 51.60935 | 6.91204 | 13237 ft | 364 kts | 349° |
| 2026-05-06 06:57 | 51.63452 | 6.90499 | 13866 ft | 370 kts | 349° |
| 2026-05-06 06:57 | 51.66020 | 6.90079 | 14504 ft | 374 kts | 0° |
| 2026-05-06 06:57 | 51.68609 | 6.90628 | 15107 ft | 378 kts | 15° |
| 2026-05-06 06:57 | 51.71060 | 6.92177 | 15747 ft | 381 kts | 29° |
| 2026-05-06 06:58 | 51.73230 | 6.94644 | 16404 ft | 383 kts | 43° |
| 2026-05-06 06:58 | 51.74988 | 6.97875 | 17028 ft | 386 kts | 54° |
| 2026-05-06 06:58 | 51.76583 | 7.01389 | 17707 ft | 389 kts | 55° |
| 2026-05-06 06:58 | 51.78189 | 7.04925 | 18295 ft | 393 kts | 54° |
| 2026-05-06 06:59 | 51.79814 | 7.08495 | 18901 ft | 396 kts | 54° |
| 2026-05-06 06:59 | 51.81451 | 7.12091 | 19491 ft | 399 kts | 54° |
| 2026-05-06 06:59 | 51.83103 | 7.15719 | 20095 ft | 402 kts | 54° |
| 2026-05-06 06:59 | 51.84762 | 7.19368 | 20705 ft | 404 kts | 55° |
| 2026-05-06 07:00 | 51.86239 | 7.23236 | 21246 ft | 406 kts | 63° |
| 2026-05-06 07:00 | 51.87555 | 7.27292 | 21785 ft | 408 kts | 63° |
| 2026-05-06 07:00 | 51.88886 | 7.31379 | 22291 ft | 411 kts | 63° |
| 2026-05-06 07:00 | 51.90228 | 7.35491 | 22792 ft | 414 kts | 62° |
| 2026-05-06 07:01 | 51.91560 | 7.39578 | 23310 ft | 417 kts | 63° |
| 2026-05-06 07:01 | 51.92918 | 7.43752 | 23784 ft | 420 kts | 63° |
| 2026-05-06 07:01 | 51.94296 | 7.47998 | 24259 ft | 421 kts | 63° |
| 2026-05-06 07:01 | 51.95641 | 7.52154 | 24739 ft | 422 kts | 63° |
| 2026-05-06 07:02 | 51.97006 | 7.56377 | 25212 ft | 423 kts | 63° |
| 2026-05-06 07:02 | 51.98375 | 7.60614 | 25649 ft | 425 kts | 63° |
| 2026-05-06 07:02 | 51.99744 | 7.64861 | 26104 ft | 425 kts | 64° |
| 2026-05-06 07:02 | 52.01115 | 7.69126 | 26528 ft | 427 kts | 63° |
| 2026-05-06 07:03 | 52.02489 | 7.73406 | 26957 ft | 429 kts | 63° |
| 2026-05-06 07:03 | 52.03874 | 7.77715 | 27332 ft | 432 kts | 64° |
| 2026-05-06 07:03 | 52.05273 | 7.82067 | 27689 ft | 436 kts | 64° |
| 2026-05-06 07:03 | 52.06678 | 7.86445 | 28091 ft | 439 kts | 64° |
| 2026-05-06 07:04 | 52.08090 | 7.90849 | 28494 ft | 441 kts | 64° |
| 2026-05-06 07:04 | 52.09506 | 7.95282 | 28914 ft | 443 kts | 64° |
| 2026-05-06 07:04 | 52.10924 | 7.99739 | 29334 ft | 444 kts | 64° |
| 2026-05-06 07:04 | 52.12345 | 8.04217 | 29751 ft | 446 kts | 64° |
| 2026-05-06 07:05 | 52.13771 | 8.08723 | 30097 ft | 448 kts | 65° |
| 2026-05-06 07:05 | 52.15199 | 8.13250 | 30422 ft | 451 kts | 64° |
| 2026-05-06 07:05 | 52.16632 | 8.17790 | 30814 ft | 450 kts | 65° |
| 2026-05-06 07:05 | 52.18140 | 8.22252 | 31259 ft | 451 kts | 59° |
| 2026-05-06 07:06 | 52.20013 | 8.26286 | 31713 ft | 453 kts | 51° |
| 2026-05-06 07:06 | 52.22297 | 8.29845 | 32163 ft | 456 kts | 41° |
| 2026-05-06 07:06 | 52.24919 | 8.32796 | 32548 ft | 461 kts | 32° |
| 2026-05-06 07:06 | 52.27763 | 8.35278 | 32916 ft | 464 kts | 31° |
| 2026-05-06 07:07 | 52.30614 | 8.37744 | 33318 ft | 464 kts | 31° |
| 2026-05-06 07:07 | 52.33470 | 8.40229 | 33748 ft | 465 kts | 31° |
| 2026-05-06 07:07 | 52.36323 | 8.42723 | 34116 ft | 465 kts | 31° |
| 2026-05-06 07:07 | 52.39176 | 8.45221 | 34463 ft | 465 kts | 31° |
| 2026-05-06 07:08 | 52.42032 | 8.47723 | 34735 ft | 467 kts | 31° |
| 2026-05-06 07:08 | 52.47750 | 8.52742 | 34823 ft | 466 kts | 31° |
| 2026-05-06 07:09 | 52.53459 | 8.57780 | 34825 ft | 466 kts | 31° |
| 2026-05-06 07:09 | 52.59169 | 8.62831 | 34825 ft | 466 kts | 31° |
| 2026-05-06 07:10 | 52.64837 | 8.67842 | 34827 ft | 466 kts | 31° |
| 2026-05-06 07:10 | 52.70580 | 8.72937 | 34829 ft | 466 kts | 31° |
| 2026-05-06 07:11 | 52.76253 | 8.78114 | 34827 ft | 465 kts | 36° |
| 2026-05-06 07:11 | 52.81161 | 8.84828 | 34827 ft | 461 kts | 46° |
| 2026-05-06 07:12 | 52.85889 | 8.91991 | 34824 ft | 461 kts | 45° |
| 2026-05-06 07:12 | 52.90629 | 8.99139 | 34824 ft | 461 kts | 45° |
| 2026-05-06 07:13 | 52.95370 | 9.06319 | 34823 ft | 462 kts | 45° |
| 2026-05-06 07:13 | 53.00103 | 9.13532 | 34828 ft | 462 kts | 45° |
| 2026-05-06 07:14 | 53.04826 | 9.20768 | 34821 ft | 462 kts | 46° |
| 2026-05-06 07:14 | 53.09547 | 9.28009 | 34830 ft | 462 kts | 46° |
| 2026-05-06 07:15 | 53.14264 | 9.35259 | 34833 ft | 462 kts | 46° |
| 2026-05-06 07:15 | 53.18974 | 9.42536 | 34840 ft | 462 kts | 46° |
| 2026-05-06 07:16 | 53.23680 | 9.49832 | 34836 ft | 461 kts | 46° |
| 2026-05-06 07:16 | 53.28388 | 9.57121 | 34836 ft | 461 kts | 46° |
| 2026-05-06 07:17 | 53.33048 | 9.64374 | 34834 ft | 461 kts | 46° |
| 2026-05-06 07:17 | 53.37733 | 9.71711 | 34836 ft | 461 kts | 46° |
| 2026-05-06 07:18 | 53.42417 | 9.79065 | 34831 ft | 461 kts | 46° |
| 2026-05-06 07:18 | 53.47102 | 9.86430 | 34849 ft | 461 kts | 46° |
| 2026-05-06 07:19 | 53.51777 | 9.93806 | 34854 ft | 461 kts | 46° |
| 2026-05-06 07:19 | 53.56441 | 10.01203 | 34849 ft | 461 kts | 46° |
| 2026-05-06 07:20 | 53.61105 | 10.08609 | 34842 ft | 461 kts | 46° |
| 2026-05-06 07:20 | 53.65772 | 10.16040 | 34842 ft | 462 kts | 46° |
| 2026-05-06 07:21 | 53.70665 | 10.23107 | 34845 ft | 465 kts | 39° |
| 2026-05-06 07:21 | 53.75893 | 10.29556 | 34848 ft | 466 kts | 39° |
| 2026-05-06 07:22 | 53.81122 | 10.36044 | 34850 ft | 466 kts | 39° |
| 2026-05-06 07:22 | 53.86356 | 10.42569 | 34842 ft | 468 kts | 39° |
| 2026-05-06 07:23 | 53.91599 | 10.49128 | 34847 ft | 469 kts | 39° |
| 2026-05-06 07:23 | 53.96849 | 10.55705 | 34838 ft | 470 kts | 39° |
| 2026-05-06 07:24 | 54.02096 | 10.62309 | 34855 ft | 469 kts | 39° |
| 2026-05-06 07:24 | 54.07301 | 10.68880 | 34860 ft | 469 kts | 39° |
| 2026-05-06 07:25 | 54.12545 | 10.75509 | 34867 ft | 469 kts | 39° |
| 2026-05-06 07:25 | 54.17786 | 10.82147 | 34877 ft | 470 kts | 39° |
| 2026-05-06 07:26 | 54.23020 | 10.88828 | 34875 ft | 469 kts | 39° |
| 2026-05-06 07:26 | 54.28247 | 10.95521 | 34877 ft | 470 kts | 39° |
| 2026-05-06 07:27 | 54.33487 | 11.02245 | 34871 ft | 471 kts | 39° |
| 2026-05-06 07:27 | 54.38738 | 11.08990 | 34877 ft | 472 kts | 39° |
| 2026-05-06 07:28 | 54.43990 | 11.15754 | 34878 ft | 472 kts | 39° |
| 2026-05-06 07:28 | 54.50978 | 11.24823 | 34884 ft | 474 kts | 40° |
| 2026-05-06 07:29 | 54.56248 | 11.31682 | 34881 ft | 476 kts | 39° |
| 2026-05-06 07:29 | 54.61606 | 11.38425 | 34879 ft | 477 kts | 38° |
| 2026-05-06 07:30 | 54.67035 | 11.45037 | 34899 ft | 477 kts | 37° |
| 2026-05-06 07:30 | 54.72455 | 11.51676 | 34924 ft | 477 kts | 38° |
| 2026-05-06 07:31 | 54.77845 | 11.58393 | 34894 ft | 478 kts | 38° |
| 2026-05-06 07:31 | 54.83240 | 11.65183 | 34898 ft | 480 kts | 38° |
| 2026-05-06 07:32 | 54.88649 | 11.71976 | 34895 ft | 480 kts | 38° |
| 2026-05-06 07:32 | 54.94072 | 11.78778 | 34903 ft | 481 kts | 38° |
| 2026-05-06 07:33 | 54.99494 | 11.85628 | 34897 ft | 482 kts | 38° |
| 2026-05-06 07:33 | 55.04895 | 11.92481 | 34892 ft | 484 kts | 38° |
| 2026-05-06 07:34 | 55.10377 | 11.99454 | 34902 ft | 485 kts | 38° |
| 2026-05-06 07:34 | 55.15797 | 12.06372 | 34904 ft | 486 kts | 38° |
| 2026-05-06 07:35 | 55.21257 | 12.13360 | 34914 ft | 487 kts | 38° |
| 2026-05-06 07:35 | 55.26734 | 12.20386 | 34903 ft | 489 kts | 38° |
| 2026-05-06 07:36 | 55.32224 | 12.27451 | 34892 ft | 490 kts | 38° |
| 2026-05-06 07:36 | 55.37706 | 12.34557 | 34903 ft | 490 kts | 38° |
| 2026-05-06 07:37 | 55.43178 | 12.41669 | 34907 ft | 490 kts | 38° |
| 2026-05-06 07:37 | 55.48656 | 12.48804 | 34916 ft | 490 kts | 38° |
| 2026-05-06 07:38 | 55.54131 | 12.55965 | 34916 ft | 489 kts | 38° |
| 2026-05-06 07:38 | 55.59592 | 12.63142 | 34936 ft | 489 kts | 38° |
| 2026-05-06 07:39 | 55.65055 | 12.70337 | 34959 ft | 490 kts | 38° |
| 2026-05-06 07:39 | 55.70530 | 12.77577 | 34929 ft | 492 kts | 38° |
| 2026-05-06 07:40 | 55.76002 | 12.84841 | 34918 ft | 493 kts | 38° |
| 2026-05-06 07:40 | 55.81506 | 12.92164 | 34915 ft | 494 kts | 38° |
| 2026-05-06 07:41 | 55.86974 | 12.99476 | 34919 ft | 495 kts | 38° |
| 2026-05-06 07:41 | 55.92484 | 13.06861 | 34923 ft | 496 kts | 38° |
| 2026-05-06 07:42 | 55.97999 | 13.14275 | 34916 ft | 497 kts | 38° |
| 2026-05-06 07:42 | 56.03523 | 13.21722 | 34919 ft | 498 kts | 38° |
| 2026-05-06 07:43 | 56.09041 | 13.29199 | 34925 ft | 498 kts | 38° |
| 2026-05-06 07:43 | 56.14559 | 13.36711 | 34942 ft | 498 kts | 38° |
| 2026-05-06 07:44 | 56.20081 | 13.44270 | 34923 ft | 500 kts | 38° |
| 2026-05-06 07:44 | 56.25605 | 13.51863 | 34923 ft | 500 kts | 38° |
| 2026-05-06 07:45 | 56.31140 | 13.59479 | 34923 ft | 501 kts | 38° |
| 2026-05-06 07:45 | 56.36682 | 13.67118 | 34937 ft | 501 kts | 37° |
| 2026-05-06 07:46 | 56.42223 | 13.74791 | 34931 ft | 503 kts | 37° |
| 2026-05-06 07:46 | 56.47768 | 13.82509 | 34930 ft | 503 kts | 37° |
| 2026-05-06 07:47 | 56.53310 | 13.90260 | 34937 ft | 504 kts | 37° |
| 2026-05-06 07:47 | 56.58819 | 13.97987 | 34937 ft | 504 kts | 37° |
| 2026-05-06 07:48 | 56.64368 | 14.05804 | 34947 ft | 505 kts | 37° |
| 2026-05-06 07:48 | 56.69927 | 14.13656 | 34936 ft | 506 kts | 37° |
| 2026-05-06 07:49 | 56.75485 | 14.21533 | 34944 ft | 507 kts | 37° |
| 2026-05-06 07:49 | 56.81048 | 14.29449 | 34952 ft | 507 kts | 37° |
| 2026-05-06 07:50 | 56.86606 | 14.37400 | 34967 ft | 508 kts | 37° |
| 2026-05-06 07:50 | 56.92173 | 14.45393 | 34959 ft | 509 kts | 37° |
| 2026-05-06 07:51 | 56.97746 | 14.53431 | 34969 ft | 510 kts | 37° |
| 2026-05-06 07:51 | 57.03320 | 14.61488 | 34966 ft | 510 kts | 37° |
| 2026-05-06 07:52 | 57.08897 | 14.69566 | 34992 ft | 511 kts | 36° |
| 2026-05-06 07:52 | 57.14475 | 14.77697 | 34974 ft | 512 kts | 37° |
| 2026-05-06 07:53 | 57.20046 | 14.85884 | 34976 ft | 512 kts | 37° |
| 2026-05-06 07:53 | 57.25620 | 14.94085 | 34985 ft | 513 kts | 37° |
| 2026-05-06 07:54 | 57.31202 | 15.02306 | 35018 ft | 513 kts | 36° |
| 2026-05-06 07:54 | 57.36782 | 15.10565 | 34986 ft | 513 kts | 36° |
| 2026-05-06 07:55 | 57.42357 | 15.18854 | 34984 ft | 514 kts | 36° |
| 2026-05-06 07:55 | 57.47928 | 15.27180 | 34992 ft | 514 kts | 36° |
| 2026-05-06 07:56 | 57.53459 | 15.35476 | 34998 ft | 514 kts | 36° |
| 2026-05-06 07:56 | 57.59060 | 15.43916 | 35013 ft | 515 kts | 36° |
| 2026-05-06 07:57 | 57.64594 | 15.52267 | 35004 ft | 515 kts | 36° |
| 2026-05-06 07:57 | 57.70199 | 15.60764 | 35001 ft | 515 kts | 36° |
| 2026-05-06 07:58 | 57.75716 | 15.69180 | 35006 ft | 516 kts | 36° |
| 2026-05-06 07:58 | 57.81270 | 15.77684 | 35009 ft | 516 kts | 36° |
| 2026-05-06 07:59 | 57.86824 | 15.86216 | 35012 ft | 516 kts | 36° |
| 2026-05-06 07:59 | 57.92375 | 15.94757 | 35012 ft | 515 kts | 36° |
| 2026-05-06 08:00 | 57.97998 | 16.03121 | 35012 ft | 515 kts | 34° |
| 2026-05-06 08:00 | 58.03666 | 16.11407 | 35050 ft | 515 kts | 33° |
| 2026-05-06 08:01 | 58.09312 | 16.19763 | 35011 ft | 516 kts | 34° |
| 2026-05-06 08:01 | 58.14971 | 16.28259 | 35013 ft | 516 kts | 34° |
| 2026-05-06 08:02 | 58.20542 | 16.36670 | 35013 ft | 516 kts | 34° |
| 2026-05-06 08:02 | 58.26132 | 16.45209 | 35050 ft | 517 kts | 37° |
| 2026-05-06 08:03 | 58.30934 | 16.55516 | 35028 ft | 524 kts | 51° |
| 2026-05-06 08:03 | 58.35272 | 16.66656 | 35018 ft | 524 kts | 51° |
| 2026-05-06 08:04 | 58.39614 | 16.77797 | 34605 ft | 524 kts | 51° |
| 2026-05-06 08:04 | 58.41789 | 16.83394 | 33880 ft | 527 kts | 51° |
| 2026-05-06 08:04 | 58.43976 | 16.89046 | 32756 ft | 534 kts | 51° |
| 2026-05-06 08:05 | 58.46210 | 16.94830 | 31457 ft | 546 kts | 51° |
| 2026-05-06 08:05 | 58.48479 | 17.00712 | 30225 ft | 554 kts | 51° |
| 2026-05-06 08:05 | 58.50777 | 17.06684 | 28742 ft | 558 kts | 51° |
| 2026-05-06 08:05 | 58.53046 | 17.12611 | 27842 ft | 546 kts | 51° |
| 2026-05-06 08:06 | 58.55189 | 17.18236 | 27034 ft | 534 kts | 51° |
| 2026-05-06 08:06 | 58.57355 | 17.23939 | 26173 ft | 527 kts | 51° |
| 2026-05-06 08:06 | 58.59500 | 17.29589 | 25329 ft | 522 kts | 51° |
| 2026-05-06 08:06 | 58.61597 | 17.35125 | 24503 ft | 517 kts | 51° |
| 2026-05-06 08:07 | 58.63696 | 17.40680 | 23701 ft | 512 kts | 51° |
| 2026-05-06 08:07 | 58.65764 | 17.46158 | 22894 ft | 503 kts | 51° |
| 2026-05-06 08:07 | 58.67807 | 17.51571 | 22121 ft | 495 kts | 51° |
| 2026-05-06 08:07 | 58.69809 | 17.56886 | 21314 ft | 487 kts | 51° |
| 2026-05-06 08:08 | 58.71768 | 17.62100 | 20468 ft | 475 kts | 51° |
| 2026-05-06 08:08 | 58.73667 | 17.67174 | 19882 ft | 460 kts | 51° |
| 2026-05-06 08:08 | 58.75521 | 17.72138 | 19236 ft | 454 kts | 51° |
| 2026-05-06 08:08 | 58.77350 | 17.77050 | 18591 ft | 448 kts | 51° |
| 2026-05-06 08:09 | 58.79161 | 17.81916 | 17880 ft | 443 kts | 50° |
| 2026-05-06 08:09 | 58.81177 | 17.86319 | 17218 ft | 433 kts | 39° |
| 2026-05-06 08:09 | 58.83485 | 17.89894 | 16715 ft | 418 kts | 28° |
| 2026-05-06 08:09 | 58.85963 | 17.92597 | 16440 ft | 404 kts | 20° |
| 2026-05-06 08:10 | 58.88481 | 17.94955 | 16098 ft | 400 kts | 20° |
| 2026-05-06 08:10 | 58.90972 | 17.97299 | 15764 ft | 397 kts | 20° |
| 2026-05-06 08:10 | 58.93444 | 17.99640 | 15441 ft | 393 kts | 20° |
| 2026-05-06 08:10 | 58.95890 | 18.01966 | 15101 ft | 390 kts | 21° |
| 2026-05-06 08:11 | 58.98314 | 18.04275 | 14772 ft | 387 kts | 21° |
| 2026-05-06 08:11 | 59.00722 | 18.06569 | 14451 ft | 385 kts | 21° |
| 2026-05-06 08:11 | 59.03115 | 18.08851 | 14126 ft | 382 kts | 21° |
| 2026-05-06 08:11 | 59.05490 | 18.11116 | 13806 ft | 379 kts | 21° |
| 2026-05-06 08:12 | 59.07853 | 18.13332 | 13466 ft | 375 kts | 18° |
| 2026-05-06 08:12 | 59.10305 | 18.14899 | 13157 ft | 367 kts | 8° |
| 2026-05-06 08:12 | 59.12799 | 18.15564 | 12848 ft | 359 kts | 358° |
| 2026-05-06 08:12 | 59.15291 | 18.15834 | 12553 ft | 358 kts | 358° |
| 2026-05-06 08:13 | 59.17768 | 18.16117 | 12253 ft | 356 kts | 359° |
| 2026-05-06 08:13 | 59.20232 | 18.16412 | 11965 ft | 354 kts | 359° |
| 2026-05-06 08:13 | 59.22679 | 18.16708 | 11663 ft | 352 kts | 359° |
| 2026-05-06 08:13 | 59.25115 | 18.17000 | 11368 ft | 350 kts | 359° |
| 2026-05-06 08:14 | 59.27546 | 18.17289 | 11074 ft | 349 kts | 360° |
| 2026-05-06 08:14 | 59.29958 | 18.17577 | 10785 ft | 344 kts | 0° |
| 2026-05-06 08:14 | 59.32288 | 18.17862 | 10633 ft | 327 kts | 0° |
| 2026-05-06 08:14 | 59.34464 | 18.18128 | 10510 ft | 312 kts | 360° |
| 2026-05-06 08:15 | 59.36581 | 18.18375 | 10375 ft | 298 kts | 360° |
| 2026-05-06 08:15 | 59.38598 | 18.18606 | 10186 ft | 290 kts | 360° |
| 2026-05-06 08:15 | 59.40595 | 18.18835 | 9955 ft | 285 kts | 360° |
| 2026-05-06 08:15 | 59.42571 | 18.19066 | 9823 ft | 284 kts | 0° |
| 2026-05-06 08:16 | 59.44542 | 18.19304 | 9684 ft | 284 kts | 0° |
| 2026-05-06 08:16 | 59.46509 | 18.19542 | 9565 ft | 283 kts | 0° |
| 2026-05-06 08:16 | 59.48473 | 18.19781 | 9375 ft | 282 kts | 0° |
| 2026-05-06 08:16 | 59.50432 | 18.20017 | 9135 ft | 281 kts | 0° |
| 2026-05-06 08:17 | 59.51748 | 18.20174 | 8974 ft | 280 kts | 0° |
| 2026-05-06 08:17 | 59.53688 | 18.20515 | 8755 ft | 280 kts | 7° |
| 2026-05-06 08:17 | 59.55603 | 18.21206 | 8482 ft | 279 kts | 7° |
| 2026-05-06 08:17 | 59.57511 | 18.21897 | 8218 ft | 278 kts | 7° |
| 2026-05-06 08:18 | 59.59381 | 18.22577 | 7972 ft | 276 kts | 8° |
| 2026-05-06 08:18 | 59.61291 | 18.23272 | 7712 ft | 275 kts | 8° |
| 2026-05-06 08:18 | 59.63138 | 18.23949 | 7464 ft | 273 kts | 8° |
| 2026-05-06 08:18 | 59.65002 | 18.24634 | 7210 ft | 272 kts | 8° |
| 2026-05-06 08:19 | 59.66855 | 18.25314 | 6961 ft | 270 kts | 8° |
| 2026-05-06 08:19 | 59.68702 | 18.25991 | 6717 ft | 269 kts | 8° |
| 2026-05-06 08:19 | 59.70535 | 18.26661 | 6460 ft | 267 kts | 8° |
| 2026-05-06 08:19 | 59.72360 | 18.27328 | 6201 ft | 266 kts | 8° |
| 2026-05-06 08:20 | 59.74174 | 18.27994 | 5956 ft | 265 kts | 8° |
| 2026-05-06 08:20 | 59.75981 | 18.28660 | 5715 ft | 264 kts | 8° |
| 2026-05-06 08:20 | 59.77776 | 18.29319 | 5449 ft | 262 kts | 8° |
| 2026-05-06 08:20 | 59.79571 | 18.29977 | 5199 ft | 262 kts | 8° |
| 2026-05-06 08:21 | 59.81370 | 18.30374 | 4953 ft | 259 kts | 354° |
| 2026-05-06 08:21 | 59.83078 | 18.29447 | 4716 ft | 255 kts | 331° |
| 2026-05-06 08:21 | 59.84442 | 18.27268 | 4470 ft | 253 kts | 308° |
| 2026-05-06 08:21 | 59.85266 | 18.24208 | 4207 ft | 252 kts | 286° |
| 2026-05-06 08:22 | 59.85415 | 18.20756 | 3940 ft | 253 kts | 263° |
| 2026-05-06 08:22 | 59.84868 | 18.17458 | 3662 ft | 253 kts | 241° |
| 2026-05-06 08:22 | 59.83981 | 18.14461 | 3449 ft | 248 kts | 239° |
| 2026-05-06 08:22 | 59.83117 | 18.11571 | 3327 ft | 238 kts | 239° |
| 2026-05-06 08:23 | 59.82293 | 18.08802 | 3193 ft | 228 kts | 239° |
| 2026-05-06 08:23 | 59.81501 | 18.06132 | 3059 ft | 221 kts | 240° |
| 2026-05-06 08:23 | 59.80717 | 18.03619 | 2945 ft | 208 kts | 232° |
| 2026-05-06 08:23 | 59.79679 | 18.01786 | 2823 ft | 195 kts | 212° |
| 2026-05-06 08:24 | 59.78448 | 18.00833 | 2660 ft | 187 kts | 194° |
| 2026-05-06 08:24 | 59.77198 | 18.00379 | 2579 ft | 179 kts | 191° |
| 2026-05-06 08:24 | 59.76008 | 17.99943 | 2413 ft | 168 kts | 192° |
| 2026-05-06 08:24 | 59.74924 | 17.99548 | 2202 ft | 150 kts | 192° |
| 2026-05-06 08:25 | 59.73951 | 17.99192 | 1987 ft | 135 kts | 192° |
| 2026-05-06 08:25 | 59.73055 | 17.98864 | 1826 ft | 129 kts | 192° |
| 2026-05-06 08:25 | 59.72183 | 17.98546 | 1647 ft | 126 kts | 192° |
| 2026-05-06 08:25 | 59.71325 | 17.98232 | 1470 ft | 125 kts | 192° |
| 2026-05-06 08:26 | 59.70469 | 17.97921 | 1301 ft | 125 kts | 191° |
| 2026-05-06 08:26 | 59.69617 | 17.97612 | 1125 ft | 124 kts | 192° |
| 2026-05-06 08:26 | 59.68763 | 17.97305 | 932 ft | 125 kts | 192° |
| 2026-05-06 08:26 | 59.67903 | 17.96994 | 765 ft | 126 kts | 191° |
| 2026-05-06 08:27 | 59.67036 | 17.96679 | 581 ft | 127 kts | 191° |
| 2026-05-06 08:27 | 59.66163 | 17.96356 | 417 ft | 128 kts | 189° |
| 2026-05-06 08:27 | 59.65286 | 17.96039 | 258 ft | 128 kts | 190° |
| 2026-05-06 08:27 | 59.64427 | 17.95727 | 155 ft | 122 kts | 189° |
| 2026-05-06 08:28 | 59.63761 | 17.95487 | 145 ft | 59 kts | 192° |
| 2026-05-06 08:28 | 59.63548 | 17.95401 | 144 ft | 26 kts | 194° |
| 2026-05-06 08:28 | 59.63378 | 17.95256 | 141 ft | 22 kts | 215° |
| 2026-05-06 08:28 | 59.63272 | 17.95082 | 139 ft | 9 kts | 221° |
| 2026-05-06 08:29 | 59.63245 | 17.94959 | 138 ft | 12 kts | 289° |
| 2026-05-06 08:29 | 59.63330 | 17.94918 | 138 ft | 15 kts | 12° |
| 2026-05-06 08:29 | 59.63448 | 17.94959 | 138 ft | 19 kts | 12° |
| 2026-05-06 08:29 | 59.63596 | 17.95014 | 138 ft | 24 kts | 10° |
| 2026-05-06 08:30 | 59.63777 | 17.95079 | 138 ft | 29 kts | 10° |
| 2026-05-06 08:30 | 59.63994 | 17.95155 | 138 ft | 35 kts | 10° |
| 2026-05-06 08:30 | 59.64172 | 17.95222 | 138 ft | 25 kts | 10° |
| 2026-05-06 08:30 | 59.64316 | 17.95185 | 138 ft | 23 kts | 330° |
| 2026-05-06 08:31 | 59.64405 | 17.94894 | 138 ft | 28 kts | 275° |
| 2026-05-06 08:31 | 59.64324 | 17.94528 | 138 ft | 32 kts | 237° |
| 2026-05-06 08:31 | 59.64199 | 17.94134 | 138 ft | 36 kts | 238° |
| 2026-05-06 08:31 | 59.64073 | 17.93740 | 138 ft | 36 kts | 238° |
| 2026-05-06 08:32 | 59.63992 | 17.93425 | 138 ft | 22 kts | 259° |
| 2026-05-06 08:32 | 59.64038 | 17.93113 | 138 ft | 26 kts | 299° |
| 2026-05-06 08:32 | 59.64114 | 17.92865 | 138 ft | 14 kts | 330° |
| 2026-05-06 08:32 | 59.64201 | 17.92825 | 138 ft | 12 kts | 313° |
| 2026-05-06 08:33 | 59.64241 | 17.92689 | 138 ft | 12 kts | 297° |
| 2026-05-06 08:33 | 59.64280 | 17.92636 | 138 ft | 7 kts | 45° |
| 2026-05-06 08:33 | 59.64326 | 17.92726 | 138 ft | 12 kts | 44° |
| 2026-05-06 08:33 | 59.64364 | 17.92797 | 138 ft | 0 kts | 43° |
| 2026-05-06 08:34 | 59.64368 | 17.92805 | 138 ft | 0 kts | 43° |